Terminal Aerodrome Forecast
Issued by NWS

Home | Current Version | Previous Version | Text Only | Print | Product List | Glossary On
Versions: 1 2 3 4 5 6 7 8 9 10 11 12 13 14 15 16 17 18 19 20
813
FTUS46 KLOX 252101 AAA
TAFLGB
TAF AMD
KLGB 252101Z 2521/2618 19007KT P6SM SCT020
     FM252200 26012KT P6SM SKC
     FM260000 29008KT P6SM SKC
     FM260400 VRB05KT P6SM SKC
     FM260600 VRB05KT P6SM BKN009
     FM261000 VRB05KT P6SM OVC012=

USA.gov is the U.S. government's official web portal to all federal, state and local government web resources and services.